createdAt,value
2023-04-29T00:00:18.575Z,8.93
2023-04-29T00:02:45.694Z,9.05
2023-04-29T00:05:13.547Z,9.98
2023-04-29T00:07:40.602Z,10.82
2023-04-29T00:10:08.318Z,11.65
2023-04-29T00:12:35.260Z,12.23
2023-04-29T00:15:03.141Z,11.60
2023-04-29T00:17:30.417Z,11.45
2023-04-29T00:19:57.340Z,10.93
2023-04-29T00:22:24.789Z,11.30
2023-04-29T00:24:52.130Z,11.30
2023-04-29T00:27:19.106Z,10.18
2023-04-29T00:29:46.061Z,11.27
2023-04-29T00:32:12.985Z,10.45
2023-04-29T00:34:39.917Z,10.88
2023-04-29T00:37:07.486Z,11.68
2023-04-29T00:39:34.369Z,10.38
2023-04-29T00:42:03.420Z,9.40
2023-04-29T00:44:30.399Z,9.70
2023-04-29T00:46:57.550Z,9.82
2023-04-29T00:49:24.405Z,8.75
2023-04-29T00:51:51.575Z,9.57
2023-04-29T00:54:19.096Z,8.73
2023-04-29T00:56:47.361Z,8.55
2023-04-29T00:59:16.916Z,8.50
2023-04-29T01:01:44.855Z,8.77
2023-04-29T01:04:12.225Z,8.02
2023-04-29T01:07:00.493Z,8.77
2023-04-29T01:09:58.169Z,8.70
2023-04-29T01:12:41.604Z,8.60
2023-04-29T01:15:26.213Z,7.95
2023-04-29T01:18:12.898Z,9.25
2023-04-29T01:20:42.099Z,9.68
2023-04-29T01:23:08.990Z,9.57
2023-04-29T01:25:35.937Z,9.63
2023-04-29T01:28:22.948Z,10.75
2023-04-29T01:31:06.505Z,10.20
2023-04-29T01:33:56.298Z,9.27
2023-04-29T01:36:44.294Z,9.75
2023-04-29T01:39:50.589Z,9.63
2023-04-29T01:42:33.692Z,9.13
2023-04-29T01:45:06.480Z,8.43
2023-04-29T01:47:34.029Z,8.98
2023-04-29T01:50:02.458Z,8.90
2023-04-29T01:52:29.336Z,8.80
2023-04-29T01:54:56.574Z,8.40
2023-04-29T01:57:23.560Z,8.95
2023-04-29T01:59:50.609Z,9.38
2023-04-29T02:02:21.317Z,9.10
2023-04-29T02:04:50.654Z,9.00
2023-04-29T02:07:17.894Z,9.50
2023-04-29T02:09:44.791Z,9.18
2023-04-29T02:12:11.730Z,8.73
2023-04-29T02:14:38.730Z,9.13
2023-04-29T02:17:05.770Z,9.05
2023-04-29T02:19:32.654Z,8.82
2023-04-29T02:21:59.531Z,9.10
2023-04-29T02:24:26.584Z,9.20
2023-04-29T02:26:53.600Z,8.55
2023-04-29T02:29:20.818Z,9.68
2023-04-29T02:31:47.805Z,9.30
2023-04-29T02:34:14.698Z,8.88
2023-04-29T02:36:41.656Z,8.88
2023-04-29T02:39:08.581Z,8.60
2023-04-29T02:41:35.494Z,9.57
2023-04-29T02:44:02.404Z,8.95
2023-04-29T02:46:29.398Z,9.02
2023-04-29T02:48:56.353Z,10.13
2023-04-29T02:51:23.366Z,11.32
2023-04-29T02:53:50.503Z,10.73
2023-04-29T02:56:17.366Z,10.43
2023-04-29T02:58:44.286Z,11.48
2023-04-29T03:01:11.589Z,11.07
2023-04-29T03:03:39.089Z,14.82
2023-04-29T03:06:07.180Z,10.00
2023-04-29T03:08:34.069Z,9.70
2023-04-29T03:11:00.956Z,10.15
2023-04-29T03:13:27.900Z,10.50
2023-04-29T03:15:54.870Z,9.93
2023-04-29T03:18:21.749Z,10.27
2023-04-29T03:20:48.626Z,9.70
2023-04-29T03:23:15.585Z,9.73
2023-04-29T03:25:42.519Z,10.23
2023-04-29T03:28:09.415Z,10.18
2023-04-29T03:30:36.747Z,10.23
2023-04-29T03:33:04.123Z,10.35
2023-04-29T03:35:31.056Z,10.15
2023-04-29T03:37:57.956Z,10.43
2023-04-29T03:40:24.909Z,10.80
2023-04-29T03:42:51.896Z,10.10
2023-04-29T03:45:18.954Z,10.30
2023-04-29T03:47:45.921Z,9.98
2023-04-29T03:50:12.887Z,10.45
2023-04-29T03:52:39.952Z,10.60
2023-04-29T03:55:07.495Z,11.30
2023-04-29T03:57:34.420Z,9.88
2023-04-29T04:00:01.311Z,10.35
2023-04-29T04:02:28.540Z,10.85
2023-04-29T04:04:55.765Z,10.73
2023-04-29T04:07:22.780Z,10.48
2023-04-29T04:09:49.669Z,11.43
2023-04-29T04:12:16.688Z,10.80
2023-04-29T04:14:43.541Z,10.35
2023-04-29T04:17:10.660Z,10.65
2023-04-29T04:19:37.522Z,10.38
2023-04-29T04:22:04.860Z,10.50
2023-04-29T04:24:31.769Z,10.70
2023-04-29T04:26:58.648Z,10.75
2023-04-29T04:29:25.522Z,10.85
2023-04-29T04:31:52.391Z,10.82
2023-04-29T04:34:19.307Z,10.82
2023-04-29T04:36:46.950Z,10.75
2023-04-29T04:39:13.865Z,10.93
2023-04-29T04:41:40.844Z,11.65
2023-04-29T04:44:07.728Z,10.98
2023-04-29T04:46:35.171Z,11.10
2023-04-29T04:49:02.045Z,11.02
2023-04-29T04:51:29.363Z,11.40
2023-04-29T04:53:56.231Z,11.70
2023-04-29T04:56:23.172Z,11.52
2023-04-29T04:58:50.259Z,11.65
2023-04-29T05:01:17.186Z,11.88
2023-04-29T05:03:44.356Z,12.68
2023-04-29T05:06:11.465Z,11.23
2023-04-29T05:08:38.332Z,12.98
2023-04-29T05:11:05.498Z,12.13
2023-04-29T05:13:34.391Z,12.45
2023-04-29T05:16:05.888Z,12.48
2023-04-29T05:18:33.585Z,12.03
2023-04-29T05:21:00.819Z,12.60
2023-04-29T05:23:28.109Z,12.52
2023-04-29T05:25:55.500Z,12.00
2023-04-29T05:28:22.375Z,12.90
2023-04-29T05:30:52.137Z,12.48
2023-04-29T05:33:19.060Z,13.43
2023-04-29T05:35:46.134Z,12.88
2023-04-29T05:38:13.319Z,12.30
2023-04-29T05:40:40.725Z,12.82
2023-04-29T05:43:07.686Z,13.30
2023-04-29T05:45:34.561Z,14.88
2023-04-29T05:48:01.484Z,13.65
2023-04-29T05:50:28.522Z,14.75
2023-04-29T05:52:56.621Z,15.02
2023-04-29T05:55:23.969Z,14.82
2023-04-29T05:57:50.833Z,14.98
2023-04-29T06:00:17.692Z,14.45
2023-04-29T06:02:57.544Z,14.90
2023-04-29T06:05:26.950Z,15.23
2023-04-29T06:07:54.381Z,15.48
2023-04-29T06:10:21.318Z,15.55
2023-04-29T06:12:51.446Z,15.10
2023-04-29T06:15:18.478Z,15.65
2023-04-29T06:17:45.421Z,15.60
2023-04-29T06:20:13.053Z,15.75
2023-04-29T06:22:40.365Z,15.27
2023-04-29T06:25:07.837Z,16.30
2023-04-29T06:27:34.728Z,15.93
2023-04-29T06:30:01.828Z,16.17
2023-04-29T06:32:28.765Z,15.80
2023-04-29T06:34:56.077Z,15.68
2023-04-29T06:37:23.026Z,16.48
2023-04-29T06:39:50.085Z,15.85
2023-04-29T06:42:17.139Z,16.95
2023-04-29T06:44:44.449Z,17.20
2023-04-29T06:47:11.502Z,16.40
2023-04-29T06:49:38.762Z,16.77
2023-04-29T06:52:05.819Z,16.35
2023-04-29T06:54:32.738Z,16.42
2023-04-29T06:56:59.728Z,16.63
2023-04-29T06:59:26.863Z,17.00
2023-04-29T07:01:53.887Z,16.27
2023-04-29T07:04:21.043Z,15.65
2023-04-29T07:06:48.484Z,16.17
2023-04-29T07:09:15.552Z,15.85
2023-04-29T07:11:42.744Z,15.77
2023-04-29T07:14:10.055Z,15.73
2023-04-29T07:16:37.105Z,16.05
2023-04-29T07:19:04.306Z,15.50
2023-04-29T07:21:31.447Z,15.80
2023-04-29T07:24:01.118Z,15.27
2023-04-29T07:26:28.397Z,15.93
2023-04-29T07:28:55.541Z,15.88
2023-04-29T07:31:23.885Z,16.52
2023-04-29T07:33:51.513Z,15.63
2023-04-29T07:36:18.724Z,15.75
2023-04-29T07:38:45.950Z,15.57
2023-04-29T07:41:12.944Z,16.08
2023-04-29T07:43:42.108Z,15.77
2023-04-29T07:46:09.386Z,15.55
2023-04-29T07:48:39.865Z,15.77
2023-04-29T07:51:07.193Z,16.70
2023-04-29T07:53:34.212Z,15.70
2023-04-29T07:56:07.645Z,14.57
2023-04-29T07:58:35.066Z,15.52
2023-04-29T08:01:10.477Z,16.25
2023-04-29T08:03:40.875Z,15.30
2023-04-29T08:06:08.629Z,14.80
2023-04-29T08:08:36.039Z,15.60
2023-04-29T08:11:03.076Z,15.80
2023-04-29T08:13:30.402Z,16.08
2023-04-29T08:15:58.502Z,15.70
2023-04-29T08:18:25.739Z,16.02
2023-04-29T08:20:53.249Z,16.23
2023-04-29T08:23:20.248Z,17.05
2023-04-29T08:25:47.586Z,16.45
2023-04-29T08:28:14.658Z,15.63
2023-04-29T08:30:41.955Z,15.98
2023-04-29T08:33:09.162Z,15.45
2023-04-29T08:35:39.533Z,15.82
2023-04-29T08:38:07.891Z,16.35
2023-04-29T08:40:36.751Z,16.67
2023-04-29T08:43:05.172Z,16.58
2023-04-29T08:45:34.493Z,15.73
2023-04-29T08:48:04.042Z,15.98
2023-04-29T08:50:31.946Z,15.68
2023-04-29T08:52:59.361Z,15.10
2023-04-29T08:55:27.672Z,15.63
2023-04-29T08:57:57.226Z,16.48
2023-04-29T09:00:25.183Z,15.95
2023-04-29T09:02:57.322Z,15.65
2023-04-29T09:05:27.755Z,15.90
2023-04-29T09:07:59.764Z,15.68
2023-04-29T09:10:27.823Z,15.77
2023-04-29T09:12:58.561Z,16.38
2023-04-29T09:15:25.539Z,16.10
2023-04-29T09:17:53.829Z,16.42
2023-04-29T09:20:23.288Z,15.80
2023-04-29T09:22:53.775Z,16.13
2023-04-29T09:25:21.759Z,15.70
2023-04-29T09:27:48.852Z,15.18
2023-04-29T09:30:16.865Z,16.33
2023-04-29T09:32:48.116Z,15.45
2023-04-29T09:35:27.066Z,15.32
2023-04-29T09:38:07.767Z,16.33
2023-04-29T09:40:43.399Z,15.10
2023-04-29T09:43:19.487Z,16.00
2023-04-29T09:45:48.620Z,16.17
2023-04-29T09:48:17.242Z,16.45
2023-04-29T09:50:45.125Z,15.73
2023-04-29T09:53:28.712Z,15.93
2023-04-29T09:56:02.907Z,16.13
2023-04-29T09:58:38.025Z,16.02
2023-04-29T10:01:06.481Z,16.73
2023-04-29T10:03:36.711Z,16.17
2023-04-29T10:06:07.230Z,16.02
2023-04-29T10:08:35.322Z,15.95
2023-04-29T10:11:05.962Z,15.80
2023-04-29T10:13:38.320Z,16.25
2023-04-29T10:16:21.325Z,16.07
2023-04-29T10:19:04.367Z,15.07
2023-04-29T10:21:32.280Z,18.77
2023-04-29T10:24:02.432Z,13.40
2023-04-29T10:26:31.988Z,13.60
2023-04-29T10:29:01.065Z,15.18
2023-04-29T10:31:28.694Z,14.32
2023-04-29T10:34:01.068Z,17.30
2023-04-29T10:36:31.497Z,15.18
2023-04-29T10:39:05.974Z,27.40
2023-04-29T10:41:47.321Z,13.73
2023-04-29T10:44:14.627Z,13.88
2023-04-29T10:46:42.478Z,20.13
2023-04-29T10:49:11.786Z,21.35
2023-04-29T10:51:43.906Z,17.02
2023-04-29T10:54:25.469Z,23.52
2023-04-29T10:56:54.475Z,15.13
2023-04-29T10:59:43.234Z,15.68
2023-04-29T11:02:16.061Z,15.30
2023-04-29T11:05:10.197Z,15.63
2023-04-29T11:07:37.341Z,17.15
2023-04-29T11:10:07.337Z,15.82
2023-04-29T11:12:34.286Z,14.70
2023-04-29T11:15:05.718Z,14.30
2023-04-29T11:17:38.199Z,13.45
2023-04-29T11:20:14.243Z,13.57
2023-04-29T11:22:51.354Z,13.55
2023-04-29T11:25:18.918Z,13.40
2023-04-29T11:27:49.150Z,14.05
2023-04-29T11:30:17.367Z,17.55
2023-04-29T11:32:44.486Z,14.80
2023-04-29T11:35:12.772Z,13.45
2023-04-29T11:37:41.574Z,12.55
2023-04-29T11:40:12.608Z,13.32
2023-04-29T11:42:48.634Z,12.95
2023-04-29T11:45:18.533Z,15.82
2023-04-29T11:47:48.623Z,16.70
2023-04-29T11:50:20.768Z,11.85
2023-04-29T11:52:49.636Z,13.00
2023-04-29T11:55:16.974Z,13.25
2023-04-29T11:57:44.431Z,13.45
2023-04-29T12:00:13.752Z,13.27
2023-04-29T12:02:47.238Z,12.65
2023-04-29T12:05:17.736Z,12.25
2023-04-29T12:07:45.119Z,12.02
2023-04-29T12:10:12.985Z,12.10
2023-04-29T12:12:41.536Z,11.65
2023-04-29T12:15:13.384Z,12.10
2023-04-29T12:17:41.365Z,12.50
2023-04-29T12:20:11.081Z,11.75
2023-04-29T12:22:38.909Z,12.25
2023-04-29T12:25:08.144Z,12.00
2023-04-29T12:27:42.331Z,11.50
2023-04-29T12:30:11.295Z,11.90
2023-04-29T12:32:41.343Z,13.18
2023-04-29T12:35:19.127Z,22.17
2023-04-29T12:37:52.572Z,14.80
2023-04-29T12:40:21.173Z,13.13
2023-04-29T12:42:48.662Z,12.13
2023-04-29T12:45:33.054Z,12.10
2023-04-29T12:48:01.627Z,13.07
2023-04-29T12:50:34.671Z,12.25
2023-04-29T12:53:03.894Z,13.63
2023-04-29T12:55:38.640Z,13.25
2023-04-29T12:58:09.472Z,12.70
2023-04-29T13:00:46.361Z,13.45
2023-04-29T13:03:15.591Z,14.05
2023-04-29T13:05:43.123Z,13.85
2023-04-29T13:08:10.344Z,14.00
2023-04-29T13:10:37.677Z,13.35
2023-04-29T13:13:04.683Z,13.88
2023-04-29T13:15:33.485Z,14.68
2023-04-29T13:18:00.643Z,15.50
2023-04-29T13:20:28.535Z,16.63
2023-04-29T13:22:55.537Z,15.85
2023-04-29T13:25:22.699Z,14.40
2023-04-29T13:27:49.942Z,14.40
2023-04-29T13:30:17.640Z,14.60
2023-04-29T13:32:53.330Z,14.32
2023-04-29T13:35:25.085Z,13.05
2023-04-29T13:37:54.018Z,13.43
2023-04-29T13:40:21.657Z,13.32
2023-04-29T13:42:50.784Z,14.07
2023-04-29T13:45:28.720Z,14.23
2023-04-29T13:48:06.890Z,16.00
2023-04-29T13:51:14.722Z,15.77
2023-04-29T14:03:25.593Z,20.05
2023-04-29T14:05:52.966Z,19.15
2023-04-29T14:08:19.968Z,18.33
2023-04-29T14:10:48.029Z,18.30
2023-04-29T14:13:15.306Z,17.70
2023-04-29T14:15:42.653Z,17.77
2023-04-29T14:18:11.817Z,17.25
2023-04-29T14:20:39.435Z,16.80
2023-04-29T14:23:07.503Z,14.02
2023-04-29T14:25:34.752Z,13.70
2023-04-29T14:28:04.166Z,13.60
2023-04-29T14:30:34.343Z,13.00
2023-04-29T14:33:03.086Z,12.98
2023-04-29T14:35:34.609Z,13.15
2023-04-29T14:38:03.026Z,13.23
2023-04-29T14:40:30.282Z,13.85
2023-04-29T14:42:57.482Z,13.35
2023-04-29T14:45:26.102Z,14.18
2023-04-29T14:47:53.393Z,13.93
2023-04-29T14:50:20.822Z,14.95
2023-04-29T14:52:47.994Z,14.95
2023-04-29T14:55:15.370Z,55.45
2023-04-29T14:57:42.719Z,17.20
2023-04-29T15:00:12.349Z,21.42
2023-04-29T15:02:39.915Z,29.75
2023-04-29T15:05:07.817Z,14.65
2023-04-29T15:07:38.654Z,14.85
2023-04-29T15:10:07.984Z,13.82
2023-04-29T15:12:35.252Z,13.02
2023-04-29T15:15:02.550Z,14.25
2023-04-29T15:17:29.758Z,13.48
2023-04-29T15:19:57.094Z,13.93
2023-04-29T15:22:26.555Z,12.85
2023-04-29T15:24:53.817Z,12.80
2023-04-29T15:27:21.650Z,13.07
2023-04-29T15:29:49.578Z,13.70
2023-04-29T15:32:18.218Z,13.05
2023-04-29T15:34:45.857Z,13.50
2023-04-29T15:37:13.246Z,12.93
2023-04-29T15:39:41.596Z,14.10
2023-04-29T15:42:10.681Z,14.23
2023-04-29T15:44:37.598Z,14.85
2023-04-29T15:47:04.832Z,13.88
2023-04-29T15:49:32.252Z,15.48
2023-04-29T15:51:59.844Z,14.73
2023-04-29T15:54:27.707Z,14.20
2023-04-29T15:56:55.789Z,22.52
2023-04-29T15:59:23.110Z,21.75
2023-04-29T16:01:50.021Z,20.27
2023-04-29T16:04:17.045Z,18.23
2023-04-29T16:06:44.218Z,33.30
2023-04-29T16:09:12.782Z,40.45
2023-04-29T16:11:39.907Z,19.13
2023-04-29T16:14:07.044Z,16.70
2023-04-29T16:16:34.267Z,24.02
2023-04-29T16:19:01.519Z,34.17
2023-04-29T16:21:29.018Z,36.75
2023-04-29T16:23:56.419Z,36.88
2023-04-29T16:26:23.841Z,58.08
2023-04-29T16:28:51.751Z,49.47
2023-04-29T16:31:20.132Z,57.42
2023-04-29T16:33:47.364Z,24.80
2023-04-29T16:36:15.062Z,22.33
2023-04-29T16:38:42.293Z,31.08
2023-04-29T16:41:09.544Z,28.45
2023-04-29T16:43:36.955Z,33.35
2023-04-29T16:46:04.354Z,41.83
2023-04-29T16:48:31.645Z,35.45
2023-04-29T16:50:59.107Z,30.95
2023-04-29T16:53:26.307Z,29.50
2023-04-29T16:55:54.739Z,26.42
2023-04-29T16:58:23.102Z,25.70
2023-04-29T17:00:50.598Z,29.35
2023-04-29T17:03:18.063Z,26.73
2023-04-29T17:05:45.527Z,27.05
2023-04-29T17:08:14.913Z,26.27
2023-04-29T17:10:46.724Z,28.30
2023-04-29T17:13:16.558Z,29.27
2023-04-29T17:15:44.178Z,32.78
2023-04-29T17:18:15.787Z,34.50
2023-04-29T17:20:45.219Z,34.88
2023-04-29T17:23:13.733Z,33.95
2023-04-29T17:25:41.216Z,34.17
2023-04-29T17:28:12.046Z,34.08
2023-04-29T17:30:42.066Z,31.35
2023-04-29T17:33:13.548Z,31.38
2023-04-29T17:35:41.666Z,27.50
2023-04-29T17:38:09.136Z,28.70
2023-04-29T17:40:38.007Z,31.77
2023-04-29T17:43:08.599Z,29.05
2023-04-29T17:45:43.096Z,30.42
2023-04-29T17:48:11.530Z,25.92
2023-04-29T17:50:40.380Z,25.27
2023-04-29T17:53:10.725Z,26.45
2023-04-29T17:55:41.943Z,28.48
2023-04-29T17:58:09.708Z,29.75
2023-04-29T18:00:39.354Z,30.38
2023-04-29T18:03:10.542Z,27.13
2023-04-29T18:05:38.193Z,27.90
2023-04-29T18:08:06.156Z,30.55
2023-04-29T18:10:35.381Z,25.85
2023-04-29T18:13:04.274Z,30.48
2023-04-29T18:15:34.643Z,27.98
2023-04-29T18:18:04.339Z,26.42
2023-04-29T18:20:34.677Z,26.27
2023-04-29T18:23:04.635Z,24.40
2023-04-29T18:25:40.012Z,48.10
2023-04-29T18:28:24.205Z,29.02
2023-04-29T18:31:05.017Z,26.55
2023-04-29T18:33:32.352Z,27.85
2023-04-29T18:35:59.627Z,26.27
2023-04-29T18:38:26.907Z,25.98
2023-04-29T18:40:54.772Z,25.85
2023-04-29T18:43:27.420Z,28.35
2023-04-29T18:45:59.258Z,28.67
2023-04-29T18:48:28.013Z,29.73
2023-04-29T18:50:59.466Z,29.13
2023-04-29T18:53:27.043Z,29.33
2023-04-29T18:55:54.603Z,26.27
2023-04-29T18:58:22.250Z,25.52
2023-04-29T19:00:49.674Z,26.60
2023-04-29T19:03:17.773Z,27.40
2023-04-29T19:05:46.301Z,26.58
2023-04-29T19:08:16.549Z,25.75
2023-04-29T19:10:45.517Z,28.13
2023-04-29T19:13:19.441Z,27.63
2023-04-29T19:15:50.822Z,40.50
2023-04-29T19:18:20.346Z,40.67
2023-04-29T19:20:49.031Z,43.85
2023-04-29T19:23:16.955Z,38.30
2023-04-29T19:25:45.795Z,35.28
2023-04-29T19:28:13.512Z,34.55
2023-04-29T19:30:40.949Z,38.00
2023-04-29T19:33:12.183Z,30.13
2023-04-29T19:35:39.937Z,27.88
2023-04-29T19:38:08.398Z,28.48
2023-04-29T19:40:35.787Z,27.95
2023-04-29T19:43:04.043Z,27.75
2023-04-29T19:45:31.679Z,27.50
2023-04-29T19:48:02.235Z,25.88
2023-04-29T19:50:30.745Z,26.60
2023-04-29T19:52:59.274Z,26.13
2023-04-29T19:55:27.398Z,24.80
2023-04-29T19:57:54.709Z,23.85
2023-04-29T20:00:23.879Z,23.02
2023-04-29T20:02:53.290Z,23.00
2023-04-29T20:05:20.596Z,23.77
2023-04-29T20:07:50.050Z,23.45
2023-04-29T20:10:18.624Z,23.77
2023-04-29T20:12:46.944Z,22.10
2023-04-29T20:15:14.550Z,22.35
2023-04-29T20:17:43.182Z,21.48
2023-04-29T20:20:11.218Z,21.90
2023-04-29T20:22:39.309Z,20.92
2023-04-29T20:25:08.134Z,20.83
2023-04-29T20:27:37.319Z,19.33
2023-04-29T20:30:06.912Z,17.23
2023-04-29T20:32:38.836Z,16.98
2023-04-29T20:35:08.986Z,16.40
2023-04-29T20:37:40.099Z,16.65
2023-04-29T20:40:10.011Z,15.73
2023-04-29T20:42:39.305Z,15.93
2023-04-29T20:45:07.988Z,16.08
2023-04-29T20:47:36.489Z,15.57
2023-04-29T20:50:04.957Z,17.33
2023-04-29T20:52:34.531Z,17.08
2023-04-29T20:55:04.187Z,16.33
2023-04-29T20:57:33.817Z,14.85
2023-04-29T21:00:01.800Z,14.55
2023-04-29T21:02:29.145Z,12.63
2023-04-29T21:04:56.400Z,13.50
2023-04-29T21:07:24.405Z,13.80
2023-04-29T21:09:51.870Z,13.55
2023-04-29T21:12:20.751Z,14.35
2023-04-29T21:14:51.162Z,12.95
2023-04-29T21:17:19.061Z,13.73
2023-04-29T21:19:46.284Z,14.15
2023-04-29T21:22:13.488Z,13.63
2023-04-29T21:24:40.651Z,12.35
2023-04-29T21:27:10.240Z,13.82
2023-04-29T21:29:41.848Z,13.90
2023-04-29T21:32:09.536Z,13.57
2023-04-29T21:34:36.808Z,13.75
2023-04-29T21:37:04.078Z,13.02
2023-04-29T21:39:32.292Z,12.88
2023-04-29T21:42:01.083Z,13.50
2023-04-29T21:44:28.597Z,13.43
2023-04-29T21:46:56.157Z,13.00
2023-04-29T21:49:23.356Z,13.10
2023-04-29T21:51:51.028Z,12.10
2023-04-29T21:54:18.116Z,12.73
2023-04-29T21:56:45.205Z,12.27
2023-04-29T21:59:12.173Z,12.27
2023-04-29T22:01:45.083Z,11.57
2023-04-29T22:04:12.250Z,12.07
2023-04-29T22:06:41.716Z,11.35
2023-04-29T22:09:09.383Z,11.43
2023-04-29T22:11:36.767Z,12.13
2023-04-29T22:14:03.725Z,12.00
2023-04-29T22:16:30.824Z,12.48
2023-04-29T22:18:58.022Z,11.43
2023-04-29T22:21:25.044Z,11.60
2023-04-29T22:23:51.978Z,12.77
2023-04-29T22:26:18.861Z,11.55
2023-04-29T22:28:46.042Z,11.18
2023-04-29T22:31:12.953Z,11.63
2023-04-29T22:33:39.813Z,10.75
2023-04-29T22:36:07.150Z,11.00
2023-04-29T22:38:35.000Z,10.73
2023-04-29T22:41:01.911Z,11.75
2023-04-29T22:43:28.835Z,11.30
2023-04-29T22:45:57.055Z,11.45
2023-04-29T22:48:27.236Z,11.40
2023-04-29T22:50:59.581Z,11.98
2023-04-29T22:53:27.243Z,11.40
2023-04-29T22:55:59.486Z,10.73
2023-04-29T22:58:26.788Z,11.07
2023-04-29T23:00:57.278Z,11.07
2023-04-29T23:03:24.852Z,10.80
2023-04-29T23:05:52.101Z,11.10
2023-04-29T23:08:18.996Z,10.70
2023-04-29T23:10:49.777Z,10.85
2023-04-29T23:13:17.493Z,10.70
2023-04-29T23:15:45.601Z,10.40
2023-04-29T23:18:13.014Z,11.00
2023-04-29T23:20:40.053Z,10.90
2023-04-29T23:23:06.902Z,12.00
2023-04-29T23:25:34.701Z,10.55
2023-04-29T23:28:01.601Z,11.50
2023-04-29T23:30:28.550Z,10.07
2023-04-29T23:32:55.523Z,9.27
2023-04-29T23:35:22.460Z,10.50
2023-04-29T23:37:49.321Z,10.50
2023-04-29T23:40:16.537Z,10.45
2023-04-29T23:42:43.567Z,10.25
2023-04-29T23:45:10.627Z,11.60
2023-04-29T23:47:37.823Z,11.02
2023-04-29T23:50:05.587Z,9.98
2023-04-29T23:52:32.548Z,10.00
2023-04-29T23:54:59.826Z,10.07
2023-04-29T23:57:26.752Z,10.27
2023-04-29T23:59:53.809Z,10.05
